Search for airport 
image banner adimage banner adimage banner ad
image banner ad

CL49 - International Tower

Located in Los Angeles, United States

ICAO - CL49, IATA -

Data provided by Airmate  

General information

Coordinates: N34°2'48" W118°15'43"
Elevation is 542 feet MSL.
Magnetic variation is 14° East
View others Airports in California

Operational data

Special qualification required
Current time UTC:
Current local time:
METAR: KHHR 211053Z AUTO 26004KT 10SM OVC010 17/14 A2993 RMK AO2 SLP135 T01720144
View NOTAMs / SUP AIP / TFR affecting this airport [VIEW]
Communications frequencies: [VIEW]

Runways:

Airport contact information

Address: Los Angeles United States

Satellite view of CL49